createdAt,value
2023-04-10T00:00:33.015Z,100854.06
2023-04-10T00:03:03.545Z,100850.22
2023-04-10T00:05:30.898Z,100847.00
2023-04-10T00:07:57.937Z,100849.81
2023-04-10T00:10:26.592Z,100844.56
2023-04-10T00:12:54.121Z,100847.53
2023-04-10T00:15:21.216Z,100841.78
2023-04-10T00:17:50.604Z,100845.75
2023-04-10T00:20:17.722Z,100840.16
2023-04-10T00:22:44.583Z,100832.41
2023-04-10T00:25:11.567Z,100828.28
2023-04-10T00:27:38.499Z,100830.81
2023-04-10T00:30:06.405Z,100832.66
2023-04-10T00:32:33.342Z,100828.97
2023-04-10T00:35:00.298Z,100821.22
2023-04-10T00:37:27.569Z,100823.56
2023-04-10T00:39:54.441Z,100829.13
2023-04-10T00:42:21.357Z,100817.66
2023-04-10T00:44:48.325Z,100814.91
2023-04-10T00:47:15.713Z,100812.97
2023-04-10T00:49:43.520Z,100813.16
2023-04-10T00:52:10.826Z,100804.06
2023-04-10T00:54:38.398Z,100803.47
2023-04-10T00:57:05.384Z,100807.41
2023-04-10T00:59:32.580Z,100809.06
2023-04-10T01:02:00.024Z,100804.16
2023-04-10T01:04:28.895Z,100799.47
2023-04-10T01:07:46.122Z,100798.09
2023-04-10T01:10:26.961Z,100785.81
2023-04-10T01:13:12.784Z,100790.13
2023-04-10T01:15:48.161Z,100794.53
2023-04-10T01:18:34.404Z,100792.25
2023-04-10T01:21:03.083Z,100788.63
2023-04-10T01:23:45.517Z,100792.59
2023-04-10T01:26:17.425Z,100790.66
2023-04-10T01:29:04.885Z,100791.41
2023-04-10T01:31:42.014Z,100795.75
2023-04-10T01:34:16.309Z,100786.22
2023-04-10T01:36:56.654Z,100780.97
2023-04-10T01:39:26.602Z,100788.22
2023-04-10T01:41:54.608Z,100776.81
2023-04-10T01:44:32.797Z,100780.56
2023-04-10T01:47:02.509Z,100779.97
2023-04-10T01:49:32.053Z,100781.47
2023-04-10T01:52:04.577Z,100784.56
2023-04-10T01:54:33.631Z,100771.66
2023-04-10T01:57:04.169Z,100774.94
2023-04-10T01:59:39.584Z,100776.50
2023-04-10T02:02:07.932Z,100778.56
2023-04-10T02:04:34.980Z,100771.97
2023-04-10T02:07:05.145Z,100769.06
2023-04-10T02:09:52.790Z,100758.25
2023-04-10T02:12:26.372Z,100769.06
2023-04-10T02:14:56.425Z,100767.41
2023-04-10T02:17:28.886Z,100771.47
2023-04-10T02:20:00.390Z,100764.34
2023-04-10T02:22:28.206Z,100766.75
2023-04-10T02:24:55.235Z,100769.25
2023-04-10T02:27:35.125Z,100761.53
2023-04-10T02:30:05.969Z,100757.56
2023-04-10T02:32:35.525Z,100754.44
2023-04-10T02:35:03.261Z,100760.78
2023-04-10T02:37:31.360Z,100763.28
2023-04-10T02:40:00.713Z,100762.72
2023-04-10T02:42:33.787Z,100762.56
2023-04-10T02:45:01.897Z,100758.38
2023-04-10T02:47:34.882Z,100756.59
2023-04-10T02:50:02.577Z,100763.94
2023-04-10T02:52:34.490Z,100763.06
2023-04-10T02:55:01.453Z,100758.34
2023-04-10T02:57:35.091Z,100757.97
2023-04-10T03:00:03.025Z,100759.63
2023-04-10T03:02:35.909Z,100750.06
2023-04-10T03:05:12.833Z,100750.34
2023-04-10T03:07:39.696Z,100754.16
2023-04-10T03:10:07.154Z,100749.41
2023-04-10T03:12:34.104Z,100748.38
2023-04-10T03:15:01.295Z,100745.91
2023-04-10T03:17:28.269Z,100753.66
2023-04-10T03:19:55.495Z,100742.25
2023-04-10T03:22:23.234Z,100739.50
2023-04-10T03:24:50.080Z,100740.72
2023-04-10T03:27:17.638Z,100734.22
2023-04-10T03:29:44.463Z,100725.66
2023-04-10T03:32:12.017Z,100722.47
2023-04-10T03:34:39.070Z,100732.44
2023-04-10T03:37:05.929Z,100726.00
2023-04-10T03:39:33.623Z,100718.13
2023-04-10T03:42:00.836Z,100727.16
2023-04-10T03:44:27.682Z,100718.28
2023-04-10T03:46:54.684Z,100717.41
2023-04-10T03:49:21.860Z,100720.25
2023-04-10T03:51:48.901Z,100724.41
2023-04-10T03:54:15.837Z,100722.88
2023-04-10T03:56:42.837Z,100719.84
2023-04-10T03:59:11.676Z,100721.78
2023-04-10T04:01:41.186Z,100730.53
2023-04-10T04:04:10.914Z,100721.56
2023-04-10T04:06:56.236Z,100733.78
2023-04-10T04:09:23.038Z,100731.06
2023-04-10T04:12:08.498Z,100725.25
2023-04-10T04:15:00.045Z,100733.75
2023-04-10T04:17:47.233Z,100724.03
2023-04-10T04:20:32.623Z,100738.63
2023-04-10T04:23:28.675Z,100736.38
2023-04-10T04:26:01.691Z,100729.03
2023-04-10T04:28:47.468Z,100740.47
2023-04-10T04:31:32.786Z,100741.56
2023-04-10T04:34:18.489Z,100733.72
2023-04-10T04:37:05.603Z,100741.41
2023-04-10T04:39:46.743Z,100744.84
2023-04-10T04:42:31.682Z,100739.59
2023-04-10T04:45:12.411Z,100724.84
2023-04-10T04:47:42.327Z,100733.00
2023-04-10T04:50:41.256Z,100728.47
2023-04-10T04:53:26.959Z,100732.19
2023-04-10T04:56:05.893Z,100735.06
2023-04-10T04:58:51.240Z,100733.47
2023-04-10T05:01:53.374Z,100730.03
2023-04-10T05:04:40.923Z,100736.19
2023-04-10T05:07:16.874Z,100738.88
2023-04-10T05:09:55.258Z,100730.69
2023-04-10T05:12:46.567Z,100737.38
2023-04-10T05:15:37.873Z,100739.75
2023-04-10T05:18:11.888Z,100739.00
2023-04-10T05:20:56.497Z,100740.00
2023-04-10T05:23:41.033Z,100742.13
2023-04-10T05:26:44.071Z,100732.03
2023-04-10T05:29:33.714Z,100735.66
2023-04-10T05:32:26.887Z,100743.16
2023-04-10T05:35:19.678Z,100740.28
2023-04-10T05:38:03.602Z,100746.31
2023-04-10T05:40:45.821Z,100735.59
2023-04-10T05:43:36.643Z,100742.50
2023-04-10T05:46:22.021Z,100752.06
2023-04-10T05:49:09.275Z,100742.69
2023-04-10T05:51:43.663Z,100743.50
2023-04-10T05:54:29.089Z,100752.00
2023-04-10T05:57:22.155Z,100758.63
2023-04-10T06:00:09.890Z,100755.78
2023-04-10T06:03:03.731Z,100731.81
2023-04-10T06:05:32.408Z,100753.28
2023-04-10T06:08:04.044Z,100752.19
2023-04-10T06:10:31.246Z,100750.53
2023-04-10T06:12:58.090Z,100757.59
2023-04-10T06:15:26.176Z,100763.25
2023-04-10T06:17:54.188Z,100755.69
2023-04-10T06:20:21.629Z,100759.13
2023-04-10T06:22:50.717Z,100757.81
2023-04-10T06:25:17.683Z,100768.50
2023-04-10T06:27:44.727Z,100770.03
2023-04-10T06:30:11.942Z,100768.63
2023-04-10T06:32:39.342Z,100771.91
2023-04-10T06:35:06.482Z,100775.78
2023-04-10T06:37:33.406Z,100786.28
2023-04-10T06:40:08.891Z,100783.06
2023-04-10T06:42:36.844Z,100798.88
2023-04-10T06:45:12.851Z,100784.06
2023-04-10T06:47:40.132Z,100790.56
2023-04-10T06:50:07.287Z,100780.22
2023-04-10T06:52:35.505Z,100780.47
2023-04-10T06:55:03.703Z,100791.38
2023-04-10T06:57:30.598Z,100787.53
2023-04-10T06:59:57.609Z,100792.66
2023-04-10T07:02:24.656Z,100794.31
2023-04-10T07:04:53.720Z,100793.75
2023-04-10T07:07:20.796Z,100793.97
2023-04-10T07:09:47.720Z,100792.00
2023-04-10T07:12:16.636Z,100795.03
2023-04-10T07:14:43.599Z,100783.56
2023-04-10T07:17:10.409Z,100776.59
2023-04-10T07:19:38.244Z,100781.72
2023-04-10T07:22:05.090Z,100782.31
2023-04-10T07:24:32.776Z,100777.63
2023-04-10T07:39:38.205Z,100789.88
2023-04-10T07:42:05.181Z,100779.53
2023-04-10T07:44:32.053Z,100782.44
2023-04-10T07:46:59.130Z,100786.28
2023-04-10T07:49:26.412Z,100784.41
2023-04-10T07:51:53.401Z,100777.00
2023-04-10T07:54:20.370Z,100777.84
2023-04-10T07:56:48.159Z,100768.59
2023-04-10T07:59:15.010Z,100770.56
2023-04-10T08:01:41.980Z,100760.81
2023-04-10T08:04:09.356Z,100757.66
2023-04-10T08:06:36.372Z,100753.09
2023-04-10T08:09:03.296Z,100752.78
2023-04-10T08:14:02.153Z,100754.41
2023-04-10T08:16:32.105Z,100756.22
2023-04-10T08:19:00.400Z,100753.50
2023-04-10T08:21:29.468Z,100753.72
2023-04-10T08:24:03.809Z,100752.13
2023-04-10T08:26:30.855Z,100750.34
2023-04-10T08:28:59.152Z,100752.13
2023-04-10T08:31:28.255Z,100739.00
2023-04-10T08:33:56.399Z,100752.41
2023-04-10T08:36:23.841Z,100746.06
2023-04-10T08:38:50.771Z,100747.13
2023-04-10T08:41:19.473Z,100739.94
2023-04-10T08:43:47.042Z,100745.25
2023-04-10T08:46:15.168Z,100751.09
2023-04-10T08:48:46.318Z,100732.72
2023-04-10T08:51:20.279Z,100733.34
2023-04-10T08:53:50.791Z,100733.00
2023-04-10T08:56:18.887Z,100719.09
2023-04-10T08:58:46.293Z,100720.56
2023-04-10T09:01:13.824Z,100726.13
2023-04-10T09:03:41.123Z,100725.63
2023-04-10T09:06:09.202Z,100719.38
2023-04-10T09:08:36.142Z,100718.84
2023-04-10T09:11:06.226Z,100703.97
2023-04-10T09:13:39.395Z,100706.81
2023-04-10T09:16:07.496Z,100697.22
2023-04-10T09:18:44.853Z,100698.03
2023-04-10T09:21:13.985Z,100687.78
2023-04-10T09:23:42.777Z,100698.31
2023-04-10T09:26:30.182Z,100693.31
2023-04-10T09:29:07.855Z,100694.69
2023-04-10T09:31:36.738Z,100691.50
2023-04-10T09:34:23.072Z,100682.09
2023-04-10T09:36:58.073Z,100674.72
2023-04-10T09:39:37.002Z,100681.53
2023-04-10T09:42:04.509Z,100672.31
2023-04-10T09:44:42.006Z,100676.59
2023-04-10T09:47:14.844Z,100674.63
2023-04-10T09:49:49.144Z,100668.47
2023-04-10T09:52:26.469Z,100676.38
2023-04-10T09:54:55.446Z,100673.44
2023-04-10T09:57:24.135Z,100666.66
2023-04-10T09:59:55.957Z,100670.59
2023-04-10T10:02:26.124Z,100671.25
2023-04-10T10:04:53.199Z,100681.03
2023-04-10T10:07:23.042Z,100642.94
2023-04-10T10:09:52.818Z,100657.28
2023-04-10T10:12:24.543Z,100661.09
2023-04-10T10:15:10.807Z,100648.72
2023-04-10T10:18:04.294Z,100650.28
2023-04-10T10:20:36.545Z,100648.75
2023-04-10T10:23:04.360Z,100650.38
2023-04-10T10:25:31.833Z,100643.44
2023-04-10T10:28:03.460Z,100648.06
2023-04-10T10:30:34.242Z,100653.00
2023-04-10T10:33:03.126Z,100656.78
2023-04-10T10:35:36.140Z,100641.34
2023-04-10T10:38:04.829Z,100637.16
2023-04-10T10:40:35.556Z,100625.50
2023-04-10T10:43:08.538Z,100630.75
2023-04-10T10:45:48.812Z,100614.78
2023-04-10T10:48:15.853Z,100619.53
2023-04-10T10:50:53.135Z,100609.72
2023-04-10T10:53:44.066Z,100598.13
2023-04-10T10:56:20.036Z,100601.22
2023-04-10T10:58:48.180Z,100594.00
2023-04-10T11:01:16.074Z,100597.31
2023-04-10T11:03:46.791Z,100595.09
2023-04-10T11:06:19.710Z,100591.94
2023-04-10T11:08:53.273Z,100590.38
2023-04-10T11:11:25.287Z,100583.78
2023-04-10T11:13:57.818Z,100595.44
2023-04-10T11:16:31.695Z,100585.97
2023-04-10T11:19:10.465Z,100586.31
2023-04-10T11:22:04.820Z,100585.72
2023-04-10T11:24:52.308Z,100577.38
2023-04-10T11:27:43.954Z,100569.94
2023-04-10T11:30:33.683Z,100581.97
2023-04-10T11:33:01.690Z,100578.38
2023-04-10T11:35:29.195Z,100587.66
2023-04-10T11:38:13.752Z,100583.94
2023-04-10T11:41:01.811Z,100586.28
2023-04-10T11:43:29.052Z,100587.75
2023-04-10T11:46:07.659Z,100580.69
2023-04-10T11:48:35.576Z,100579.50
2023-04-10T11:51:10.057Z,100569.91
2023-04-10T11:53:37.984Z,100589.63
2023-04-10T11:56:07.560Z,100577.84
2023-04-10T11:58:34.407Z,100574.94
2023-04-10T12:01:04.868Z,100568.13
2023-04-10T12:03:49.931Z,100563.69
2023-04-10T12:06:17.253Z,100562.09
2023-04-10T12:08:46.333Z,100559.81
2023-04-10T12:11:14.614Z,100578.09
2023-04-10T12:13:41.550Z,100561.50
2023-04-10T12:16:11.051Z,100552.84
2023-04-10T12:18:38.432Z,100551.09
2023-04-10T12:21:08.142Z,100541.66
2023-04-10T12:23:38.444Z,100542.13
2023-04-10T12:26:16.772Z,100536.59
2023-04-10T12:28:52.600Z,100527.22
2023-04-10T12:31:31.099Z,100531.63
2023-04-10T12:33:59.224Z,100524.09
2023-04-10T12:36:30.036Z,100514.47
2023-04-10T12:38:58.536Z,100524.88
2023-04-10T12:41:29.635Z,100515.53
2023-04-10T12:44:11.405Z,100509.84
2023-04-10T12:46:39.317Z,100507.84
2023-04-10T12:49:13.879Z,100507.31
2023-04-10T12:51:51.939Z,100500.44
2023-04-10T12:54:32.240Z,100495.41
2023-04-10T12:57:00.022Z,100482.47
2023-04-10T12:59:28.027Z,100486.41
2023-04-10T13:01:55.662Z,100503.38
2023-04-10T13:04:23.976Z,100481.56
2023-04-10T13:06:53.951Z,100482.00
2023-04-10T13:09:21.320Z,100483.03
2023-04-10T13:11:50.262Z,100486.06
2023-04-10T13:14:18.583Z,100483.84
2023-04-10T13:16:45.672Z,100480.50
2023-04-10T13:19:13.248Z,100475.06
2023-04-10T13:21:40.252Z,100471.28
2023-04-10T13:24:07.340Z,100476.00
2023-04-10T13:26:34.303Z,100477.59
2023-04-10T13:29:01.182Z,100483.97
2023-04-10T13:31:28.220Z,100481.78
2023-04-10T13:33:55.262Z,100483.53
2023-04-10T13:36:22.591Z,100473.34
2023-04-10T13:38:49.743Z,100484.44
2023-04-10T13:41:16.642Z,100482.59
2023-04-10T13:43:43.518Z,100487.44
2023-04-10T13:46:10.483Z,100478.53
2023-04-10T13:48:41.500Z,100475.88
2023-04-10T13:51:09.042Z,100472.44
2023-04-10T13:53:36.126Z,100467.31
2023-04-10T13:56:03.095Z,100466.75
2023-04-10T13:58:32.179Z,100463.16
2023-04-10T14:00:59.470Z,100450.09
2023-04-10T14:03:26.518Z,100460.72
2023-04-10T14:05:54.517Z,100449.03
2023-04-10T14:08:21.394Z,100446.88
2023-04-10T14:10:51.848Z,100450.69
2023-04-10T14:13:19.231Z,100441.09
2023-04-10T14:15:46.555Z,100448.72
2023-04-10T14:18:17.572Z,100443.97
2023-04-10T14:20:44.854Z,100441.19
2023-04-10T14:23:18.451Z,100443.38
2023-04-10T14:25:46.510Z,100420.38
2023-04-10T14:28:19.226Z,100435.44
2023-04-10T14:30:48.637Z,100451.25
2023-04-10T14:33:16.482Z,100436.69
2023-04-10T14:35:44.462Z,100446.28
2023-04-10T14:38:11.810Z,100444.31
2023-04-10T14:40:40.826Z,100440.78
2023-04-10T14:43:07.964Z,100431.31
2023-04-10T14:45:34.913Z,100429.19
2023-04-10T14:48:02.756Z,100445.19
2023-04-10T14:50:32.066Z,100432.59
2023-04-10T14:53:02.606Z,100433.75
2023-04-10T14:55:30.154Z,100436.13
2023-04-10T14:57:58.620Z,100439.72
2023-04-10T15:00:26.238Z,100436.78
2023-04-10T15:02:53.296Z,100439.47
2023-04-10T15:05:20.385Z,100434.28
2023-04-10T15:07:47.207Z,100438.44
2023-04-10T15:10:14.097Z,100438.69
2023-04-10T15:12:41.043Z,100428.47
2023-04-10T15:15:08.331Z,100424.28
2023-04-10T15:17:35.523Z,100431.00
2023-04-10T15:20:02.430Z,100431.22
2023-04-10T15:22:29.598Z,100434.31
2023-04-10T15:24:56.659Z,100433.91
2023-04-10T15:27:23.507Z,100436.75
2023-04-10T15:29:50.425Z,100423.13
2023-04-10T15:32:17.320Z,100428.63
2023-04-10T15:34:44.826Z,100425.19
2023-04-10T15:37:11.754Z,100425.59
2023-04-10T15:39:38.771Z,100425.00
2023-04-10T15:42:08.391Z,100427.19
2023-04-10T15:44:35.456Z,100428.91
2023-04-10T15:47:02.361Z,100420.13
2023-04-10T15:49:37.606Z,100430.91
2023-04-10T15:52:06.715Z,100438.34
2023-04-10T15:54:34.214Z,100420.34
2023-04-10T15:57:02.327Z,100414.13
2023-04-10T15:59:29.741Z,100423.72
2023-04-10T16:01:56.801Z,100416.97
2023-04-10T16:04:24.209Z,100424.75
2023-04-10T16:06:51.439Z,100419.00
2023-04-10T16:09:25.316Z,100404.25
2023-04-10T16:11:54.029Z,100409.06
2023-04-10T16:14:20.915Z,100406.22
2023-04-10T16:16:47.887Z,100397.72
2023-04-10T16:19:14.761Z,100404.81
2023-04-10T16:21:45.148Z,100402.06
2023-04-10T16:24:12.027Z,100395.47
2023-04-10T16:26:39.067Z,100397.47
2023-04-10T16:29:06.637Z,100381.16
2023-04-10T16:31:33.605Z,100375.72
2023-04-10T16:34:01.516Z,100373.59
2023-04-10T16:36:28.433Z,100371.91
2023-04-10T16:38:55.692Z,100366.34
2023-04-10T16:41:23.029Z,100374.09
2023-04-10T16:43:50.096Z,100376.50
2023-04-10T16:46:16.974Z,100374.84
2023-04-10T16:48:44.328Z,100379.16
2023-04-10T16:51:17.857Z,100374.25
2023-04-10T16:53:45.013Z,100376.97
2023-04-10T16:56:12.025Z,100363.25
2023-04-10T16:58:41.214Z,100355.00
2023-04-10T17:01:26.171Z,100365.63
2023-04-10T17:03:54.551Z,100365.06
2023-04-10T17:06:21.427Z,100362.78
2023-04-10T17:08:48.427Z,100362.53
2023-04-10T17:11:16.138Z,100362.38
2023-04-10T17:13:43.526Z,100369.03
2023-04-10T17:16:10.809Z,100364.53
2023-04-10T17:18:38.840Z,100359.06
2023-04-10T17:21:06.082Z,100358.38
2023-04-10T17:23:32.912Z,100370.50
2023-04-10T17:25:59.938Z,100363.59
2023-04-10T17:28:26.794Z,100363.91
2023-04-10T17:30:53.755Z,100361.38
2023-04-10T17:33:21.894Z,100355.38
2023-04-10T17:35:50.745Z,100361.63
2023-04-10T17:38:18.262Z,100372.72
2023-04-10T17:40:46.304Z,100360.00
2023-04-10T17:43:13.213Z,100365.72
2023-04-10T17:45:40.285Z,100349.22
2023-04-10T17:48:07.818Z,100364.09
2023-04-10T17:50:35.407Z,100370.72
2023-04-10T17:53:02.455Z,100361.50
2023-04-10T17:55:29.404Z,100355.00
2023-04-10T17:57:59.201Z,100362.28
2023-04-10T18:00:26.589Z,100354.16
2023-04-10T18:02:59.936Z,100357.31
2023-04-10T18:05:31.076Z,100358.72
2023-04-10T18:07:57.932Z,100366.34
2023-04-10T18:10:24.718Z,100352.59
2023-04-10T18:12:51.705Z,100355.81
2023-04-10T18:15:18.861Z,100362.59
2023-04-10T18:17:45.790Z,100367.72
2023-04-10T18:20:12.786Z,100355.19
2023-04-10T18:22:39.828Z,100357.13
2023-04-10T18:25:07.419Z,100357.25
2023-04-10T18:27:36.023Z,100359.69
2023-04-10T18:30:03.038Z,100361.09
2023-04-10T18:32:30.022Z,100360.84
2023-04-10T18:34:56.881Z,100358.53
2023-04-10T18:37:23.823Z,100359.97
2023-04-10T18:39:50.798Z,100354.53
2023-04-10T18:42:17.803Z,100355.56
2023-04-10T18:44:44.918Z,100365.59
2023-04-10T18:47:11.797Z,100360.38
2023-04-10T18:49:38.743Z,100356.56
2023-04-10T18:52:05.705Z,100354.16
2023-04-10T18:54:33.956Z,100353.19
2023-04-10T18:57:01.209Z,100353.34
2023-04-10T18:59:28.894Z,100354.03
2023-04-10T19:01:55.842Z,100342.31
2023-04-10T19:04:22.986Z,100333.91
2023-04-10T19:06:50.193Z,100337.13
2023-04-10T19:09:17.372Z,100341.19
2023-04-10T19:11:44.543Z,100338.44
2023-04-10T19:14:11.399Z,100335.38
2023-04-10T19:16:38.380Z,100338.28
2023-04-10T19:19:05.442Z,100329.66
2023-04-10T19:21:32.608Z,100340.88
2023-04-10T19:23:59.661Z,100341.34
2023-04-10T19:26:26.665Z,100338.78
2023-04-10T19:41:26.315Z,100306.66
2023-04-10T19:43:54.380Z,100303.56
2023-04-10T19:46:22.379Z,100300.19
2023-04-10T19:48:59.887Z,100295.84
2023-04-10T19:51:28.112Z,100296.66
2023-04-10T19:53:58.567Z,100310.56
2023-04-10T19:56:27.787Z,100305.38
2023-04-10T19:58:54.781Z,100309.56
2023-04-10T20:01:24.262Z,100305.69
2023-04-10T20:03:51.611Z,100296.44
2023-04-10T20:06:18.828Z,100296.41
2023-04-10T20:08:45.886Z,100290.72
2023-04-10T20:11:12.749Z,100286.38
2023-04-10T20:13:40.972Z,100294.22
2023-04-10T20:16:08.690Z,100292.63
2023-04-10T20:18:36.235Z,100288.94
2023-04-10T20:21:04.681Z,100291.00
2023-04-10T20:23:31.918Z,100287.75
2023-04-10T20:25:58.904Z,100286.19
2023-04-10T20:28:25.808Z,100280.13
2023-04-10T20:30:52.704Z,100276.91
2023-04-10T20:33:19.566Z,100265.44
2023-04-10T20:35:46.574Z,100266.34
2023-04-10T20:38:13.460Z,100254.13
2023-04-10T20:40:40.594Z,100255.63
2023-04-10T20:43:11.860Z,100261.09
2023-04-10T20:45:39.634Z,100250.09
2023-04-10T20:48:08.325Z,100252.06
2023-04-10T20:50:37.033Z,100257.34
2023-04-10T20:53:04.077Z,100254.69
2023-04-10T20:55:31.092Z,100246.06
2023-04-10T20:57:58.801Z,100237.28
2023-04-10T21:00:25.887Z,100236.38
2023-04-10T21:02:54.390Z,100238.09
2023-04-10T21:05:21.450Z,100247.59
2023-04-10T21:07:53.905Z,100235.81
2023-04-10T21:10:21.332Z,100226.59
2023-04-10T21:12:54.040Z,100221.56
2023-04-10T21:15:22.642Z,100212.66
2023-04-10T21:17:49.575Z,100212.31
2023-04-10T21:20:21.373Z,100202.78
2023-04-10T21:22:51.425Z,100202.50
2023-04-10T21:25:21.247Z,100202.59
2023-04-10T21:27:48.104Z,100195.84
2023-04-10T21:30:15.211Z,100192.13
2023-04-10T21:32:42.178Z,100187.44
2023-04-10T21:35:09.677Z,100176.53
2023-04-10T21:37:39.279Z,100176.75
2023-04-10T21:40:09.445Z,100174.66
2023-04-10T21:42:44.105Z,100169.13
2023-04-10T21:45:13.839Z,100167.63
2023-04-10T21:47:49.561Z,100163.81
2023-04-10T21:50:16.527Z,100165.59
2023-04-10T21:52:43.399Z,100156.28
2023-04-10T21:55:10.794Z,100164.56
2023-04-10T21:57:38.126Z,100163.19
2023-04-10T22:00:05.421Z,100157.34
2023-04-10T22:02:32.655Z,100161.97
2023-04-10T22:04:59.809Z,100165.75
2023-04-10T22:07:27.016Z,100165.28
2023-04-10T22:09:56.382Z,100162.34
2023-04-10T22:12:23.221Z,100155.97
2023-04-10T22:14:51.320Z,100165.41
2023-04-10T22:17:18.216Z,100155.22
2023-04-10T22:19:45.211Z,100152.72
2023-04-10T22:22:12.181Z,100151.13
2023-04-10T22:24:39.056Z,100152.81
2023-04-10T22:27:06.112Z,100138.50
2023-04-10T22:29:35.139Z,100139.28
2023-04-10T22:32:02.170Z,100120.88
2023-04-10T22:34:29.090Z,100126.91
2023-04-10T22:36:56.024Z,100121.56
2023-04-10T22:39:22.869Z,100113.59
2023-04-10T22:41:49.751Z,100118.47
2023-04-10T22:44:16.622Z,100114.59
2023-04-10T22:46:44.036Z,100108.41
2023-04-10T22:49:10.984Z,100106.16
2023-04-10T22:51:37.799Z,100094.53
2023-04-10T22:54:04.684Z,100096.03
2023-04-10T22:56:31.997Z,100093.69
2023-04-10T22:58:58.792Z,100085.66
2023-04-10T23:01:25.746Z,100087.63
2023-04-10T23:03:53.974Z,100091.16
2023-04-10T23:06:21.203Z,100089.69
2023-04-10T23:08:48.117Z,100088.13
2023-04-10T23:11:15.002Z,100087.16
2023-04-10T23:13:43.231Z,100075.97
2023-04-10T23:16:10.623Z,100069.00
2023-04-10T23:18:37.733Z,100078.75
2023-04-10T23:21:08.904Z,100070.00
2023-04-10T23:23:35.813Z,100061.41
2023-04-10T23:26:02.839Z,100069.97
2023-04-10T23:28:29.680Z,100065.50
2023-04-10T23:30:56.748Z,100052.84
2023-04-10T23:33:23.766Z,100061.91
2023-04-10T23:35:50.702Z,100066.94
2023-04-10T23:38:17.720Z,100057.78
2023-04-10T23:40:44.892Z,100054.19
2023-04-10T23:43:11.908Z,100059.81
2023-04-10T23:45:39.064Z,100052.09
2023-04-10T23:48:08.960Z,100061.66
2023-04-10T23:50:35.875Z,100053.84
2023-04-10T23:53:02.999Z,100055.31
2023-04-10T23:55:29.963Z,100055.81
2023-04-10T23:57:56.941Z,100049.00
